TAP1862 LPPD-LPPT
Flight info
| Callsign | TAP1862 |
|---|---|
| Flight time | 2h 3m |
| Altitude | 27000 |
| Route | BEKUN DCT LENSI/M071F390 T25 GUNTI/N0415F390 DCT LAZET |
| Aircraft | A20N/M-SDE2E3FGHIRWXY/LB1 |
Departure
| Time | 2026-05-08 15:17 |
|---|---|
| Airport | João Paulo II Airport (LPPD) |
Arrival
| Time | 2026-05-08 17:21 |
|---|---|
| Airport | Lisbon Humberto Delgado Airport (LPPT) |
| Time | Latitude | Longitude | Altitude | Speed | Heading |
|---|---|---|---|---|---|
| 2026-05-08 14:53 | 37.74824 | -25.70937 | 276 ft | 0 kts | 21° |
| 2026-05-08 15:08 | 37.74823 | -25.70938 | 276 ft | 1 kts | 21° |
| 2026-05-08 15:08 | 37.74804 | -25.70947 | 276 ft | 2 kts | 21° |
| 2026-05-08 15:08 | 37.74790 | -25.70954 | 275 ft | 2 kts | 26° |
| 2026-05-08 15:09 | 37.74778 | -25.70966 | 275 ft | 2 kts | 49° |
| 2026-05-08 15:09 | 37.74770 | -25.70982 | 274 ft | 2 kts | 68° |
| 2026-05-08 15:09 | 37.74766 | -25.71000 | 274 ft | 2 kts | 87° |
| 2026-05-08 15:09 | 37.74768 | -25.71019 | 274 ft | 1 kts | 105° |
| 2026-05-08 15:10 | 37.74770 | -25.71027 | 274 ft | 1 kts | 115° |
| 2026-05-08 15:10 | 37.74771 | -25.71031 | 274 ft | 0 kts | 112° |
| 2026-05-08 15:11 | 37.74763 | -25.71005 | 274 ft | 9 kts | 110° |
| 2026-05-08 15:12 | 37.74735 | -25.70908 | 273 ft | 13 kts | 111° |
| 2026-05-08 15:12 | 37.74699 | -25.70791 | 272 ft | 15 kts | 112° |
| 2026-05-08 15:12 | 37.74659 | -25.70660 | 269 ft | 16 kts | 107° |
| 2026-05-08 15:12 | 37.74617 | -25.70515 | 265 ft | 18 kts | 114° |
| 2026-05-08 15:13 | 37.74522 | -25.70389 | 259 ft | 21 kts | 144° |
| 2026-05-08 15:13 | 37.74393 | -25.70260 | 249 ft | 25 kts | 135° |
| 2026-05-08 15:13 | 37.74294 | -25.70062 | 239 ft | 28 kts | 112° |
| 2026-05-08 15:13 | 37.74232 | -25.69878 | 231 ft | 24 kts | 113° |
| 2026-05-08 15:14 | 37.74165 | -25.69667 | 220 ft | 27 kts | 110° |
| 2026-05-08 15:14 | 37.74089 | -25.69424 | 205 ft | 31 kts | 110° |
| 2026-05-08 15:14 | 37.74014 | -25.69197 | 193 ft | 17 kts | 111° |
| 2026-05-08 15:14 | 37.73964 | -25.69038 | 185 ft | 21 kts | 111° |
| 2026-05-08 15:15 | 37.73902 | -25.68848 | 174 ft | 23 kts | 110° |
| 2026-05-08 15:15 | 37.73850 | -25.68662 | 160 ft | 21 kts | 111° |
| 2026-05-08 15:15 | 37.73779 | -25.68563 | 149 ft | 17 kts | 145° |
| 2026-05-08 15:15 | 37.73792 | -25.68485 | 145 ft | 15 kts | 306° |
| 2026-05-08 15:16 | 37.73820 | -25.68567 | 153 ft | 6 kts | 291° |
| 2026-05-08 15:16 | 37.73835 | -25.68616 | 156 ft | 24 kts | 291° |
| 2026-05-08 15:16 | 37.73989 | -25.69086 | 188 ft | 89 kts | 292° |
| 2026-05-08 15:16 | 37.74282 | -25.70039 | 238 ft | 142 kts | 291° |
| 2026-05-08 15:17 | 37.74680 | -25.71338 | 433 ft | 170 kts | 296° |
| 2026-05-08 15:17 | 37.75103 | -25.72828 | 780 ft | 193 kts | 294° |
| 2026-05-08 15:17 | 37.75496 | -25.74534 | 1413 ft | 209 kts | 284° |
| 2026-05-08 15:17 | 37.75604 | -25.76302 | 2417 ft | 205 kts | 280° |
| 2026-05-08 15:18 | 37.75682 | -25.78135 | 3001 ft | 220 kts | 281° |
| 2026-05-08 15:18 | 37.76028 | -25.80049 | 3513 ft | 227 kts | 306° |
| 2026-05-08 15:18 | 37.77106 | -25.81515 | 4086 ft | 234 kts | 328° |
| 2026-05-08 15:18 | 37.78482 | -25.82574 | 4886 ft | 237 kts | 339° |
| 2026-05-08 15:19 | 37.80103 | -25.82939 | 5739 ft | 241 kts | 2° |
| 2026-05-08 15:19 | 37.81713 | -25.82412 | 6563 ft | 249 kts | 24° |
| 2026-05-08 15:19 | 37.83075 | -25.80999 | 7372 ft | 263 kts | 47° |
| 2026-05-08 15:19 | 37.83874 | -25.78885 | 8153 ft | 278 kts | 65° |
| 2026-05-08 15:20 | 37.84397 | -25.76489 | 8933 ft | 286 kts | 70° |
| 2026-05-08 15:20 | 37.84714 | -25.74014 | 9677 ft | 295 kts | 77° |
| 2026-05-08 15:20 | 37.84875 | -25.71417 | 10391 ft | 302 kts | 79° |
| 2026-05-08 15:20 | 37.85012 | -25.68693 | 10847 ft | 318 kts | 79° |
| 2026-05-08 15:21 | 37.85154 | -25.65841 | 11188 ft | 336 kts | 80° |
| 2026-05-08 15:21 | 37.85305 | -25.62800 | 11509 ft | 354 kts | 80° |
| 2026-05-08 15:21 | 37.85464 | -25.59620 | 11867 ft | 371 kts | 80° |
| 2026-05-08 15:21 | 37.85619 | -25.56378 | 12443 ft | 378 kts | 80° |
| 2026-05-08 15:22 | 37.85777 | -25.53038 | 13108 ft | 383 kts | 80° |
| 2026-05-08 15:22 | 37.85938 | -25.49673 | 13759 ft | 387 kts | 80° |
| 2026-05-08 15:22 | 37.86103 | -25.46245 | 14391 ft | 392 kts | 79° |
| 2026-05-08 15:22 | 37.86269 | -25.42796 | 15023 ft | 396 kts | 79° |
| 2026-05-08 15:23 | 37.86436 | -25.39345 | 15624 ft | 400 kts | 79° |
| 2026-05-08 15:23 | 37.86605 | -25.35808 | 16238 ft | 404 kts | 79° |
| 2026-05-08 15:23 | 37.86775 | -25.32251 | 16803 ft | 409 kts | 80° |
| 2026-05-08 15:23 | 37.86947 | -25.28649 | 17348 ft | 413 kts | 80° |
| 2026-05-08 15:24 | 37.87118 | -25.24991 | 17894 ft | 418 kts | 80° |
| 2026-05-08 15:24 | 37.87287 | -25.21356 | 18426 ft | 422 kts | 80° |
| 2026-05-08 15:24 | 37.87459 | -25.17658 | 18986 ft | 424 kts | 80° |
| 2026-05-08 15:24 | 37.87630 | -25.13938 | 19526 ft | 427 kts | 80° |
| 2026-05-08 15:25 | 37.87801 | -25.10182 | 20031 ft | 431 kts | 80° |
| 2026-05-08 15:25 | 37.87974 | -25.06395 | 20526 ft | 435 kts | 80° |
| 2026-05-08 15:25 | 37.88150 | -25.02552 | 21011 ft | 438 kts | 80° |
| 2026-05-08 15:25 | 37.88323 | -24.98684 | 21500 ft | 442 kts | 79° |
| 2026-05-08 15:26 | 37.88492 | -24.94845 | 22001 ft | 444 kts | 79° |
| 2026-05-08 15:26 | 37.88664 | -24.90940 | 22459 ft | 447 kts | 79° |
| 2026-05-08 15:26 | 37.88837 | -24.87017 | 22929 ft | 450 kts | 79° |
| 2026-05-08 15:26 | 37.89011 | -24.83031 | 23365 ft | 453 kts | 79° |
| 2026-05-08 15:27 | 37.89185 | -24.79036 | 23797 ft | 456 kts | 79° |
| 2026-05-08 15:27 | 37.89357 | -24.75030 | 24239 ft | 459 kts | 79° |
| 2026-05-08 15:27 | 37.89528 | -24.70992 | 24646 ft | 462 kts | 79° |
| 2026-05-08 15:27 | 37.89699 | -24.66951 | 25058 ft | 464 kts | 79° |
| 2026-05-08 15:28 | 37.89870 | -24.62885 | 25437 ft | 467 kts | 79° |
| 2026-05-08 15:28 | 37.90039 | -24.58801 | 25821 ft | 470 kts | 79° |
| 2026-05-08 15:28 | 37.90209 | -24.54653 | 26217 ft | 472 kts | 79° |
| 2026-05-08 15:28 | 37.90377 | -24.50532 | 26524 ft | 476 kts | 79° |
| 2026-05-08 15:29 | 37.90546 | -24.46345 | 26850 ft | 479 kts | 79° |
| 2026-05-08 15:29 | 37.90716 | -24.42142 | 26897 ft | 479 kts | 79° |
| 2026-05-08 15:29 | 37.90883 | -24.37922 | 26896 ft | 478 kts | 79° |
| 2026-05-08 15:29 | 37.91048 | -24.33722 | 26903 ft | 479 kts | 80° |
| 2026-05-08 15:30 | 37.91211 | -24.29501 | 26906 ft | 479 kts | 80° |
| 2026-05-08 15:30 | 37.91373 | -24.25317 | 26895 ft | 478 kts | 80° |
| 2026-05-08 15:30 | 37.91532 | -24.21154 | 26890 ft | 479 kts | 80° |
| 2026-05-08 15:30 | 37.91693 | -24.16930 | 26896 ft | 478 kts | 80° |
| 2026-05-08 15:31 | 37.91850 | -24.12742 | 26884 ft | 478 kts | 80° |
| 2026-05-08 15:31 | 37.92003 | -24.08578 | 26895 ft | 477 kts | 80° |
| 2026-05-08 15:31 | 37.92157 | -24.04396 | 26892 ft | 477 kts | 80° |
| 2026-05-08 15:31 | 37.92313 | -24.00170 | 26900 ft | 478 kts | 80° |
| 2026-05-08 15:32 | 37.92464 | -23.95997 | 26883 ft | 477 kts | 80° |
| 2026-05-08 15:32 | 37.92613 | -23.91813 | 26881 ft | 476 kts | 80° |
| 2026-05-08 15:32 | 37.92761 | -23.87674 | 26874 ft | 476 kts | 80° |
| 2026-05-08 15:32 | 37.92908 | -23.83475 | 26876 ft | 476 kts | 80° |
| 2026-05-08 15:33 | 37.93051 | -23.79325 | 26872 ft | 476 kts | 80° |
| 2026-05-08 15:33 | 37.93196 | -23.75130 | 26874 ft | 476 kts | 81° |
| 2026-05-08 15:33 | 37.93337 | -23.70970 | 26874 ft | 475 kts | 80° |
| 2026-05-08 15:33 | 37.93477 | -23.66825 | 26877 ft | 475 kts | 81° |
| 2026-05-08 15:34 | 37.93617 | -23.62623 | 26886 ft | 476 kts | 80° |
| 2026-05-08 15:34 | 37.93753 | -23.58457 | 26878 ft | 476 kts | 81° |
| 2026-05-08 15:34 | 37.93889 | -23.54298 | 26875 ft | 475 kts | 81° |
| 2026-05-08 15:34 | 37.94022 | -23.50156 | 26872 ft | 475 kts | 81° |
| 2026-05-08 15:35 | 37.94155 | -23.45992 | 26869 ft | 475 kts | 81° |
| 2026-05-08 15:35 | 37.94286 | -23.41820 | 26863 ft | 475 kts | 81° |
| 2026-05-08 15:35 | 37.94416 | -23.37639 | 26864 ft | 475 kts | 81° |
| 2026-05-08 15:35 | 37.94543 | -23.33485 | 26859 ft | 475 kts | 81° |
| 2026-05-08 15:36 | 37.94671 | -23.29321 | 26860 ft | 475 kts | 81° |
| 2026-05-08 15:36 | 37.95013 | -23.25180 | 26856 ft | 468 kts | 73° |
| 2026-05-08 15:36 | 37.95750 | -23.21220 | 26856 ft | 461 kts | 65° |
| 2026-05-08 15:36 | 37.96852 | -23.17445 | 26856 ft | 455 kts | 60° |
| 2026-05-08 15:37 | 37.98094 | -23.13794 | 26848 ft | 454 kts | 59° |
| 2026-05-08 15:37 | 37.99368 | -23.10139 | 26846 ft | 454 kts | 59° |
| 2026-05-08 15:37 | 38.00647 | -23.06469 | 26846 ft | 454 kts | 59° |
| 2026-05-08 15:37 | 38.01911 | -23.02815 | 26842 ft | 455 kts | 59° |
| 2026-05-08 15:38 | 38.03170 | -22.99156 | 26839 ft | 454 kts | 59° |
| 2026-05-08 15:38 | 38.04422 | -22.95502 | 26839 ft | 455 kts | 59° |
| 2026-05-08 15:38 | 38.05675 | -22.91828 | 26839 ft | 454 kts | 59° |
| 2026-05-08 15:38 | 38.06924 | -22.88159 | 26837 ft | 454 kts | 59° |
| 2026-05-08 15:39 | 38.08178 | -22.84467 | 26831 ft | 453 kts | 59° |
| 2026-05-08 15:39 | 38.09421 | -22.80802 | 26830 ft | 453 kts | 59° |
| 2026-05-08 15:39 | 38.10652 | -22.77162 | 26832 ft | 452 kts | 59° |
| 2026-05-08 15:39 | 38.11881 | -22.73530 | 26833 ft | 453 kts | 59° |
| 2026-05-08 15:40 | 38.13122 | -22.69859 | 26826 ft | 452 kts | 59° |
| 2026-05-08 15:40 | 38.14357 | -22.66195 | 26823 ft | 452 kts | 59° |
| 2026-05-08 15:40 | 38.15591 | -22.62532 | 26820 ft | 453 kts | 59° |
| 2026-05-08 15:40 | 38.16817 | -22.58891 | 26818 ft | 452 kts | 59° |
| 2026-05-08 15:41 | 38.18049 | -22.55225 | 26812 ft | 452 kts | 59° |
| 2026-05-08 15:41 | 38.19294 | -22.51515 | 26813 ft | 452 kts | 59° |
| 2026-05-08 15:41 | 38.20508 | -22.47894 | 26807 ft | 452 kts | 59° |
| 2026-05-08 15:41 | 38.21735 | -22.44228 | 26799 ft | 453 kts | 59° |
| 2026-05-08 15:42 | 38.22979 | -22.40509 | 26806 ft | 453 kts | 59° |
| 2026-05-08 15:42 | 38.24192 | -22.36874 | 26805 ft | 452 kts | 59° |
| 2026-05-08 15:42 | 38.25415 | -22.33207 | 26802 ft | 452 kts | 60° |
| 2026-05-08 15:42 | 38.26641 | -22.29526 | 26803 ft | 452 kts | 59° |
| 2026-05-08 15:43 | 38.27863 | -22.25850 | 26796 ft | 452 kts | 59° |
| 2026-05-08 15:43 | 38.29094 | -22.22145 | 26795 ft | 453 kts | 60° |
| 2026-05-08 15:43 | 38.30315 | -22.18470 | 26793 ft | 453 kts | 60° |
| 2026-05-08 15:43 | 38.31532 | -22.14798 | 26800 ft | 452 kts | 60° |
| 2026-05-08 15:44 | 38.32758 | -22.11092 | 26798 ft | 453 kts | 59° |
| 2026-05-08 15:44 | 38.33974 | -22.07410 | 26791 ft | 452 kts | 60° |
| 2026-05-08 15:44 | 38.35184 | -22.03743 | 26802 ft | 452 kts | 59° |
| 2026-05-08 15:44 | 38.36395 | -22.00067 | 26803 ft | 452 kts | 59° |
| 2026-05-08 15:45 | 38.37611 | -21.96377 | 26798 ft | 452 kts | 59° |
| 2026-05-08 15:45 | 38.38825 | -21.92684 | 26798 ft | 451 kts | 59° |
| 2026-05-08 15:45 | 38.40026 | -21.89029 | 26797 ft | 452 kts | 59° |
| 2026-05-08 15:45 | 38.41230 | -21.85361 | 26793 ft | 452 kts | 59° |
| 2026-05-08 15:46 | 38.42444 | -21.81656 | 26796 ft | 453 kts | 59° |
| 2026-05-08 15:46 | 38.43654 | -21.77954 | 26790 ft | 452 kts | 59° |
| 2026-05-08 15:46 | 38.44853 | -21.74286 | 26791 ft | 453 kts | 59° |
| 2026-05-08 15:46 | 38.46069 | -21.70556 | 26791 ft | 452 kts | 59° |
| 2026-05-08 15:47 | 38.47268 | -21.66877 | 26779 ft | 452 kts | 59° |
| 2026-05-08 15:47 | 38.48468 | -21.63190 | 26782 ft | 451 kts | 59° |
| 2026-05-08 15:47 | 38.49663 | -21.59510 | 26777 ft | 451 kts | 59° |
| 2026-05-08 15:47 | 38.50862 | -21.55820 | 26783 ft | 451 kts | 59° |
| 2026-05-08 15:48 | 38.53254 | -21.48439 | 26770 ft | 451 kts | 59° |
| 2026-05-08 15:48 | 38.54464 | -21.44693 | 26767 ft | 452 kts | 59° |
| 2026-05-08 15:48 | 38.55657 | -21.41003 | 26768 ft | 451 kts | 59° |
| 2026-05-08 15:49 | 38.56844 | -21.37317 | 26768 ft | 451 kts | 59° |
| 2026-05-08 15:49 | 38.58036 | -21.33618 | 26751 ft | 451 kts | 60° |
| 2026-05-08 15:49 | 38.59230 | -21.29906 | 26756 ft | 452 kts | 60° |
| 2026-05-08 15:49 | 38.60410 | -21.26233 | 26760 ft | 452 kts | 60° |
| 2026-05-08 15:50 | 38.61598 | -21.22531 | 26754 ft | 452 kts | 60° |
| 2026-05-08 15:50 | 38.62797 | -21.18790 | 26746 ft | 452 kts | 60° |
| 2026-05-08 15:50 | 38.63969 | -21.15125 | 26746 ft | 452 kts | 60° |
| 2026-05-08 15:50 | 38.65157 | -21.11406 | 26744 ft | 451 kts | 60° |
| 2026-05-08 15:51 | 38.66341 | -21.07696 | 26743 ft | 451 kts | 60° |
| 2026-05-08 15:51 | 38.67518 | -21.04001 | 26755 ft | 451 kts | 60° |
| 2026-05-08 15:51 | 38.68707 | -21.00269 | 26741 ft | 452 kts | 60° |
| 2026-05-08 15:51 | 38.69889 | -20.96551 | 26748 ft | 453 kts | 60° |
| 2026-05-08 15:52 | 38.71069 | -20.92832 | 26745 ft | 452 kts | 60° |
| 2026-05-08 15:52 | 38.72239 | -20.89141 | 26749 ft | 452 kts | 60° |
| 2026-05-08 15:52 | 38.73418 | -20.85416 | 26739 ft | 452 kts | 60° |
| 2026-05-08 15:52 | 38.74605 | -20.81661 | 26750 ft | 452 kts | 60° |
| 2026-05-08 15:53 | 38.75770 | -20.77972 | 26741 ft | 451 kts | 60° |
| 2026-05-08 15:53 | 38.76942 | -20.74253 | 26739 ft | 450 kts | 60° |
| 2026-05-08 15:53 | 38.78108 | -20.70551 | 26741 ft | 450 kts | 60° |
| 2026-05-08 15:53 | 38.79270 | -20.66858 | 26734 ft | 449 kts | 60° |
| 2026-05-08 15:54 | 38.80434 | -20.63150 | 26733 ft | 449 kts | 60° |
| 2026-05-08 15:54 | 38.81598 | -20.59440 | 26740 ft | 449 kts | 60° |
| 2026-05-08 15:54 | 38.82756 | -20.55744 | 26738 ft | 450 kts | 60° |
| 2026-05-08 15:54 | 38.83923 | -20.52013 | 26732 ft | 450 kts | 60° |
| 2026-05-08 15:55 | 38.85090 | -20.48276 | 26733 ft | 450 kts | 60° |
| 2026-05-08 15:55 | 38.87400 | -20.40860 | 26723 ft | 448 kts | 60° |
| 2026-05-08 15:55 | 38.88540 | -20.37198 | 26717 ft | 448 kts | 60° |
| 2026-05-08 15:56 | 38.89698 | -20.33473 | 26709 ft | 447 kts | 61° |
| 2026-05-08 15:56 | 38.90850 | -20.29758 | 26708 ft | 448 kts | 61° |
| 2026-05-08 15:56 | 38.91993 | -20.26070 | 26709 ft | 448 kts | 61° |
| 2026-05-08 15:56 | 38.93135 | -20.22378 | 26706 ft | 448 kts | 61° |
| 2026-05-08 15:57 | 38.94276 | -20.18681 | 26702 ft | 447 kts | 61° |
| 2026-05-08 15:57 | 38.95423 | -20.14956 | 26702 ft | 447 kts | 61° |
| 2026-05-08 15:57 | 38.96560 | -20.11266 | 26702 ft | 448 kts | 61° |
| 2026-05-08 15:57 | 38.97707 | -20.07537 | 26702 ft | 447 kts | 61° |
| 2026-05-08 15:58 | 38.98804 | -20.03796 | 26696 ft | 451 kts | 65° |
| 2026-05-08 15:58 | 38.99619 | -19.99893 | 26701 ft | 458 kts | 71° |
| 2026-05-08 15:58 | 39.00088 | -19.95829 | 26693 ft | 463 kts | 78° |
| 2026-05-08 15:58 | 39.00252 | -19.91709 | 26697 ft | 466 kts | 81° |
| 2026-05-08 15:59 | 39.00333 | -19.87562 | 26701 ft | 466 kts | 82° |
| 2026-05-08 15:59 | 39.00400 | -19.83378 | 26697 ft | 468 kts | 82° |
| 2026-05-08 15:59 | 39.00464 | -19.79252 | 26701 ft | 467 kts | 82° |
| 2026-05-08 15:59 | 39.00532 | -19.75114 | 26710 ft | 466 kts | 82° |
| 2026-05-08 16:00 | 39.00606 | -19.70958 | 26707 ft | 465 kts | 82° |
| 2026-05-08 16:00 | 39.00680 | -19.66797 | 26699 ft | 465 kts | 82° |
| 2026-05-08 16:00 | 39.00755 | -19.62641 | 26696 ft | 465 kts | 82° |
| 2026-05-08 16:00 | 39.00828 | -19.58523 | 26699 ft | 466 kts | 82° |
| 2026-05-08 16:01 | 39.00902 | -19.54360 | 26688 ft | 465 kts | 82° |
| 2026-05-08 16:01 | 39.00973 | -19.50185 | 26686 ft | 465 kts | 83° |
| 2026-05-08 16:01 | 39.01043 | -19.46087 | 26676 ft | 465 kts | 83° |
| 2026-05-08 16:01 | 39.01110 | -19.41903 | 26674 ft | 465 kts | 82° |
| 2026-05-08 16:02 | 39.01177 | -19.37765 | 26676 ft | 465 kts | 83° |
| 2026-05-08 16:02 | 39.01242 | -19.33654 | 26668 ft | 465 kts | 83° |
| 2026-05-08 16:02 | 39.01306 | -19.29518 | 26667 ft | 466 kts | 83° |
| 2026-05-08 16:02 | 39.01371 | -19.25377 | 26669 ft | 466 kts | 84° |
| 2026-05-08 16:03 | 39.01433 | -19.21219 | 26663 ft | 466 kts | 84° |
| 2026-05-08 16:03 | 39.01493 | -19.17055 | 26657 ft | 466 kts | 84° |
| 2026-05-08 16:03 | 39.01550 | -19.12899 | 26658 ft | 466 kts | 84° |
| 2026-05-08 16:03 | 39.01608 | -19.08740 | 26653 ft | 466 kts | 84° |
| 2026-05-08 16:04 | 39.01662 | -19.04565 | 26646 ft | 465 kts | 84° |
| 2026-05-08 16:04 | 39.01717 | -19.00435 | 26639 ft | 465 kts | 84° |
| 2026-05-08 16:04 | 39.01769 | -18.96299 | 26640 ft | 465 kts | 84° |
| 2026-05-08 16:04 | 39.01820 | -18.92152 | 26646 ft | 464 kts | 84° |
| 2026-05-08 16:05 | 39.01870 | -18.88047 | 26643 ft | 464 kts | 84° |
| 2026-05-08 16:05 | 39.01916 | -18.83928 | 26645 ft | 464 kts | 84° |
| 2026-05-08 16:05 | 39.01962 | -18.79789 | 26645 ft | 464 kts | 84° |
| 2026-05-08 16:05 | 39.02007 | -18.75648 | 26640 ft | 463 kts | 84° |
| 2026-05-08 16:06 | 39.02051 | -18.71519 | 26639 ft | 462 kts | 84° |
| 2026-05-08 16:06 | 39.02094 | -18.67424 | 26636 ft | 461 kts | 84° |
| 2026-05-08 16:06 | 39.02135 | -18.63267 | 26636 ft | 461 kts | 84° |
| 2026-05-08 16:06 | 39.02175 | -18.59156 | 26630 ft | 460 kts | 84° |
| 2026-05-08 16:07 | 39.02211 | -18.55060 | 26629 ft | 460 kts | 84° |
| 2026-05-08 16:07 | 39.02245 | -18.50999 | 26633 ft | 459 kts | 84° |
| 2026-05-08 16:07 | 39.02280 | -18.46902 | 26630 ft | 459 kts | 84° |
| 2026-05-08 16:07 | 39.02314 | -18.42838 | 26630 ft | 459 kts | 84° |
| 2026-05-08 16:08 | 39.02346 | -18.38745 | 26629 ft | 458 kts | 84° |
| 2026-05-08 16:08 | 39.02377 | -18.34617 | 26626 ft | 458 kts | 85° |
| 2026-05-08 16:08 | 39.02405 | -18.30535 | 26621 ft | 458 kts | 85° |
| 2026-05-08 16:08 | 39.02433 | -18.26508 | 26625 ft | 457 kts | 85° |
| 2026-05-08 16:09 | 39.02460 | -18.22446 | 26622 ft | 457 kts | 85° |
| 2026-05-08 16:09 | 39.02485 | -18.18332 | 26624 ft | 456 kts | 85° |
| 2026-05-08 16:09 | 39.02507 | -18.14254 | 26618 ft | 456 kts | 85° |
| 2026-05-08 16:09 | 39.02528 | -18.10210 | 26618 ft | 456 kts | 85° |
| 2026-05-08 16:10 | 39.02548 | -18.06161 | 26614 ft | 456 kts | 85° |
| 2026-05-08 16:10 | 39.02568 | -18.02101 | 26615 ft | 455 kts | 86° |
| 2026-05-08 16:10 | 39.02585 | -17.98052 | 26612 ft | 454 kts | 86° |
| 2026-05-08 16:10 | 39.02600 | -17.94014 | 26612 ft | 455 kts | 86° |
| 2026-05-08 16:11 | 39.02614 | -17.89942 | 26607 ft | 454 kts | 86° |
| 2026-05-08 16:11 | 39.02628 | -17.85920 | 26602 ft | 453 kts | 86° |
| 2026-05-08 16:11 | 39.02639 | -17.81899 | 26600 ft | 452 kts | 86° |
| 2026-05-08 16:11 | 39.02650 | -17.77876 | 26599 ft | 451 kts | 86° |
| 2026-05-08 16:12 | 39.02659 | -17.73840 | 26599 ft | 451 kts | 86° |
| 2026-05-08 16:12 | 39.02666 | -17.69788 | 26593 ft | 451 kts | 86° |
| 2026-05-08 16:12 | 39.02673 | -17.65822 | 26590 ft | 450 kts | 86° |
| 2026-05-08 16:12 | 39.02677 | -17.61806 | 26586 ft | 449 kts | 86° |
| 2026-05-08 16:13 | 39.02680 | -17.57764 | 26582 ft | 448 kts | 86° |
| 2026-05-08 16:13 | 39.02683 | -17.53803 | 26577 ft | 448 kts | 86° |
| 2026-05-08 16:13 | 39.02684 | -17.49836 | 26579 ft | 448 kts | 86° |
| 2026-05-08 16:13 | 39.02684 | -17.45824 | 26578 ft | 448 kts | 86° |
| 2026-05-08 16:14 | 39.02682 | -17.41847 | 26576 ft | 448 kts | 86° |
| 2026-05-08 16:14 | 39.02679 | -17.37842 | 26576 ft | 448 kts | 86° |
| 2026-05-08 16:14 | 39.02673 | -17.33864 | 26580 ft | 448 kts | 87° |
| 2026-05-08 16:14 | 39.02667 | -17.29836 | 26581 ft | 449 kts | 87° |
| 2026-05-08 16:15 | 39.02660 | -17.25852 | 26575 ft | 448 kts | 87° |
| 2026-05-08 16:15 | 39.02652 | -17.21907 | 26573 ft | 446 kts | 87° |
| 2026-05-08 16:15 | 39.02640 | -17.17891 | 26575 ft | 445 kts | 87° |
| 2026-05-08 16:15 | 39.02628 | -17.13959 | 26572 ft | 444 kts | 87° |
| 2026-05-08 16:16 | 39.02616 | -17.09976 | 26568 ft | 444 kts | 88° |
| 2026-05-08 16:16 | 39.02602 | -17.06010 | 26568 ft | 443 kts | 88° |
| 2026-05-08 16:16 | 39.02587 | -17.02099 | 26568 ft | 443 kts | 88° |
| 2026-05-08 16:16 | 39.02570 | -16.98108 | 26564 ft | 443 kts | 88° |
| 2026-05-08 16:17 | 39.02551 | -16.94191 | 26565 ft | 444 kts | 88° |
| 2026-05-08 16:17 | 39.02532 | -16.90226 | 26564 ft | 443 kts | 88° |
| 2026-05-08 16:17 | 39.02511 | -16.86305 | 26565 ft | 442 kts | 88° |
| 2026-05-08 16:17 | 39.02489 | -16.82381 | 26565 ft | 441 kts | 88° |
| 2026-05-08 16:18 | 39.02465 | -16.78423 | 26564 ft | 440 kts | 88° |
| 2026-05-08 16:18 | 39.02441 | -16.74516 | 26566 ft | 438 kts | 88° |
| 2026-05-08 16:18 | 39.02415 | -16.70620 | 26567 ft | 437 kts | 88° |
| 2026-05-08 16:18 | 39.02388 | -16.66750 | 26571 ft | 435 kts | 88° |
| 2026-05-08 16:19 | 39.02362 | -16.62870 | 26572 ft | 433 kts | 88° |
| 2026-05-08 16:19 | 39.02334 | -16.59033 | 26574 ft | 431 kts | 88° |
| 2026-05-08 16:19 | 39.02303 | -16.55191 | 26574 ft | 431 kts | 89° |
| 2026-05-08 16:19 | 39.02271 | -16.51337 | 26576 ft | 430 kts | 89° |
| 2026-05-08 16:20 | 39.02242 | -16.47495 | 26579 ft | 428 kts | 89° |
| 2026-05-08 16:20 | 39.02209 | -16.43685 | 26578 ft | 428 kts | 89° |
| 2026-05-08 16:20 | 39.02172 | -16.39895 | 26579 ft | 428 kts | 90° |
| 2026-05-08 16:20 | 39.02137 | -16.36060 | 26579 ft | 428 kts | 90° |
| 2026-05-08 16:21 | 39.02100 | -16.32287 | 26580 ft | 427 kts | 91° |
| 2026-05-08 16:21 | 39.02059 | -16.28437 | 26580 ft | 426 kts | 91° |
| 2026-05-08 16:21 | 39.02022 | -16.24695 | 26579 ft | 426 kts | 91° |
| 2026-05-08 16:21 | 39.01981 | -16.20849 | 26574 ft | 426 kts | 92° |
| 2026-05-08 16:22 | 39.01936 | -16.17069 | 26572 ft | 426 kts | 92° |
| 2026-05-08 16:22 | 39.01890 | -16.13284 | 26571 ft | 428 kts | 92° |
| 2026-05-08 16:22 | 39.01843 | -16.09432 | 26568 ft | 430 kts | 92° |
| 2026-05-08 16:22 | 39.01794 | -16.05592 | 26568 ft | 432 kts | 92° |
| 2026-05-08 16:23 | 39.01746 | -16.01776 | 26568 ft | 432 kts | 92° |
| 2026-05-08 16:23 | 39.01695 | -15.97888 | 26564 ft | 432 kts | 92° |
| 2026-05-08 16:23 | 39.01645 | -15.94087 | 26570 ft | 432 kts | 92° |
| 2026-05-08 16:23 | 39.01593 | -15.90222 | 26566 ft | 432 kts | 92° |
| 2026-05-08 16:24 | 39.01540 | -15.86352 | 26566 ft | 431 kts | 92° |
| 2026-05-08 16:24 | 39.01486 | -15.82537 | 26570 ft | 431 kts | 92° |
| 2026-05-08 16:24 | 39.01431 | -15.78715 | 26569 ft | 431 kts | 92° |
| 2026-05-08 16:24 | 39.01374 | -15.74832 | 26571 ft | 431 kts | 92° |
| 2026-05-08 16:25 | 39.01317 | -15.71036 | 26571 ft | 430 kts | 92° |
| 2026-05-08 16:25 | 39.01258 | -15.67162 | 26568 ft | 431 kts | 92° |
| 2026-05-08 16:25 | 39.01197 | -15.63312 | 26568 ft | 431 kts | 92° |
| 2026-05-08 16:25 | 39.01137 | -15.59521 | 26566 ft | 430 kts | 92° |
| 2026-05-08 16:26 | 39.01072 | -15.55656 | 26562 ft | 430 kts | 92° |
| 2026-05-08 16:26 | 39.01009 | -15.51854 | 26565 ft | 430 kts | 92° |
| 2026-05-08 16:26 | 39.00943 | -15.47992 | 26564 ft | 429 kts | 92° |
| 2026-05-08 16:26 | 39.00877 | -15.44216 | 26563 ft | 428 kts | 93° |
| 2026-05-08 16:27 | 39.00809 | -15.40395 | 26562 ft | 428 kts | 93° |
| 2026-05-08 16:27 | 39.00738 | -15.36543 | 26566 ft | 428 kts | 93° |
| 2026-05-08 16:27 | 39.00668 | -15.32732 | 26567 ft | 428 kts | 94° |
| 2026-05-08 16:27 | 39.00596 | -15.28957 | 26566 ft | 428 kts | 94° |
| 2026-05-08 16:28 | 39.00523 | -15.25129 | 26570 ft | 428 kts | 94° |
| 2026-05-08 16:28 | 39.00447 | -15.21299 | 26569 ft | 428 kts | 94° |
| 2026-05-08 16:28 | 39.00372 | -15.17478 | 26571 ft | 429 kts | 94° |
| 2026-05-08 16:28 | 39.00294 | -15.13669 | 26570 ft | 429 kts | 94° |
| 2026-05-08 16:29 | 39.00217 | -15.09834 | 26569 ft | 429 kts | 94° |
| 2026-05-08 16:29 | 39.00137 | -15.06036 | 26570 ft | 429 kts | 94° |
| 2026-05-08 16:29 | 39.00056 | -15.02192 | 26572 ft | 428 kts | 94° |
| 2026-05-08 16:29 | 38.99990 | -14.98409 | 26569 ft | 428 kts | 94° |
| 2026-05-08 16:30 | 38.99981 | -14.94583 | 26570 ft | 428 kts | 93° |
| 2026-05-08 16:30 | 38.99989 | -14.90771 | 26566 ft | 428 kts | 93° |
| 2026-05-08 16:30 | 38.99998 | -14.86989 | 26566 ft | 428 kts | 93° |
| 2026-05-08 16:30 | 39.00003 | -14.83171 | 26568 ft | 428 kts | 93° |
| 2026-05-08 16:31 | 39.00005 | -14.79307 | 26570 ft | 428 kts | 93° |
| 2026-05-08 16:31 | 39.00003 | -14.75514 | 26574 ft | 429 kts | 93° |
| 2026-05-08 16:31 | 38.99999 | -14.71706 | 26573 ft | 429 kts | 93° |
| 2026-05-08 16:31 | 38.99993 | -14.67860 | 26571 ft | 429 kts | 93° |
| 2026-05-08 16:32 | 38.99987 | -14.64060 | 26574 ft | 429 kts | 93° |
| 2026-05-08 16:32 | 38.99979 | -14.60246 | 26577 ft | 428 kts | 93° |
| 2026-05-08 16:32 | 38.99970 | -14.56417 | 26581 ft | 428 kts | 93° |
| 2026-05-08 16:32 | 38.99960 | -14.52582 | 26582 ft | 428 kts | 93° |
| 2026-05-08 16:33 | 38.99947 | -14.48771 | 26587 ft | 428 kts | 93° |
| 2026-05-08 16:33 | 38.99932 | -14.44959 | 26587 ft | 429 kts | 93° |
| 2026-05-08 16:33 | 38.99918 | -14.41151 | 26586 ft | 429 kts | 93° |
| 2026-05-08 16:33 | 38.99902 | -14.37359 | 26587 ft | 428 kts | 93° |
| 2026-05-08 16:34 | 38.99884 | -14.33527 | 26586 ft | 428 kts | 94° |
| 2026-05-08 16:34 | 38.99866 | -14.29734 | 26584 ft | 428 kts | 94° |
| 2026-05-08 16:34 | 38.99846 | -14.25902 | 26585 ft | 428 kts | 94° |
| 2026-05-08 16:34 | 38.99825 | -14.22120 | 26582 ft | 427 kts | 94° |
| 2026-05-08 16:35 | 38.99802 | -14.18294 | 26580 ft | 428 kts | 94° |
| 2026-05-08 16:35 | 38.99778 | -14.14474 | 26582 ft | 428 kts | 94° |
| 2026-05-08 16:35 | 38.99753 | -14.10670 | 26582 ft | 428 kts | 94° |
| 2026-05-08 16:35 | 38.99727 | -14.06860 | 26584 ft | 428 kts | 94° |
| 2026-05-08 16:36 | 38.99699 | -14.03056 | 26583 ft | 428 kts | 94° |
| 2026-05-08 16:36 | 38.99670 | -13.99239 | 26590 ft | 429 kts | 94° |
| 2026-05-08 16:36 | 38.99639 | -13.95383 | 26593 ft | 428 kts | 94° |
| 2026-05-08 16:36 | 38.99610 | -13.91576 | 26601 ft | 428 kts | 94° |
| 2026-05-08 16:37 | 38.99578 | -13.87765 | 26602 ft | 428 kts | 94° |
| 2026-05-08 16:37 | 38.99545 | -13.83955 | 26603 ft | 428 kts | 94° |
| 2026-05-08 16:37 | 38.99509 | -13.80154 | 26606 ft | 428 kts | 94° |
| 2026-05-08 16:37 | 38.99473 | -13.76317 | 26608 ft | 428 kts | 94° |
| 2026-05-08 16:38 | 38.99437 | -13.72508 | 26609 ft | 428 kts | 94° |
| 2026-05-08 16:38 | 38.99398 | -13.68728 | 26608 ft | 429 kts | 94° |
| 2026-05-08 16:38 | 38.99358 | -13.64875 | 26607 ft | 428 kts | 94° |
| 2026-05-08 16:38 | 38.99318 | -13.61099 | 26604 ft | 429 kts | 95° |
| 2026-05-08 16:39 | 38.99274 | -13.57265 | 26606 ft | 429 kts | 95° |
| 2026-05-08 16:39 | 38.99230 | -13.53441 | 26607 ft | 429 kts | 94° |
| 2026-05-08 16:39 | 38.99186 | -13.49629 | 26606 ft | 429 kts | 95° |
| 2026-05-08 16:39 | 38.99141 | -13.45805 | 26606 ft | 429 kts | 95° |
| 2026-05-08 16:40 | 38.99092 | -13.41950 | 26610 ft | 429 kts | 95° |
| 2026-05-08 16:40 | 38.99044 | -13.38157 | 26612 ft | 428 kts | 95° |
| 2026-05-08 16:40 | 38.98993 | -13.34352 | 26611 ft | 428 kts | 95° |
| 2026-05-08 16:40 | 38.98942 | -13.30504 | 26613 ft | 428 kts | 95° |
| 2026-05-08 16:41 | 38.98891 | -13.26724 | 26615 ft | 428 kts | 95° |
| 2026-05-08 16:41 | 38.98836 | -13.22895 | 26617 ft | 429 kts | 95° |
| 2026-05-08 16:41 | 38.98781 | -13.19053 | 26613 ft | 429 kts | 95° |
| 2026-05-08 16:42 | 38.98669 | -13.11438 | 26620 ft | 428 kts | 96° |
| 2026-05-08 16:42 | 38.98611 | -13.07639 | 26617 ft | 429 kts | 96° |
| 2026-05-08 16:42 | 38.98550 | -13.03811 | 26614 ft | 429 kts | 96° |
| 2026-05-08 16:42 | 38.98488 | -12.99950 | 26611 ft | 429 kts | 96° |
| 2026-05-08 16:43 | 38.98426 | -12.96120 | 26611 ft | 429 kts | 96° |
| 2026-05-08 16:43 | 38.98361 | -12.92293 | 26609 ft | 429 kts | 96° |
| 2026-05-08 16:43 | 38.98298 | -12.88516 | 26610 ft | 430 kts | 96° |
| 2026-05-08 16:43 | 38.98231 | -12.84687 | 26620 ft | 430 kts | 96° |
| 2026-05-08 16:44 | 38.98161 | -12.80821 | 26615 ft | 430 kts | 96° |
| 2026-05-08 16:44 | 38.98094 | -12.77003 | 26616 ft | 430 kts | 97° |
| 2026-05-08 16:44 | 38.98024 | -12.73178 | 26629 ft | 430 kts | 96° |
| 2026-05-08 16:44 | 38.97951 | -12.69326 | 26624 ft | 430 kts | 97° |
| 2026-05-08 16:45 | 38.97880 | -12.65530 | 26627 ft | 431 kts | 97° |
| 2026-05-08 16:45 | 38.97805 | -12.61665 | 26634 ft | 431 kts | 97° |
| 2026-05-08 16:45 | 38.97728 | -12.57812 | 26632 ft | 431 kts | 97° |
| 2026-05-08 16:45 | 38.97652 | -12.53965 | 26641 ft | 432 kts | 97° |
| 2026-05-08 16:46 | 38.97574 | -12.50131 | 26641 ft | 433 kts | 97° |
| 2026-05-08 16:46 | 38.97495 | -12.46269 | 26644 ft | 432 kts | 97° |
| 2026-05-08 16:46 | 38.97415 | -12.42429 | 26648 ft | 433 kts | 97° |
| 2026-05-08 16:46 | 38.97333 | -12.38592 | 26651 ft | 433 kts | 97° |
| 2026-05-08 16:47 | 38.97250 | -12.34713 | 26650 ft | 433 kts | 98° |
| 2026-05-08 16:47 | 38.97165 | -12.30877 | 26639 ft | 433 kts | 98° |
| 2026-05-08 16:47 | 38.97080 | -12.27013 | 26649 ft | 433 kts | 98° |
| 2026-05-08 16:47 | 38.96994 | -12.23131 | 26654 ft | 433 kts | 98° |
| 2026-05-08 16:48 | 38.96907 | -12.19314 | 26666 ft | 433 kts | 98° |
| 2026-05-08 16:48 | 38.96817 | -12.15422 | 26651 ft | 434 kts | 99° |
| 2026-05-08 16:48 | 38.96723 | -12.11554 | 26661 ft | 435 kts | 98° |
| 2026-05-08 16:48 | 38.96632 | -12.07722 | 26658 ft | 435 kts | 98° |
| 2026-05-08 16:49 | 38.96538 | -12.03843 | 26659 ft | 436 kts | 99° |
| 2026-05-08 16:49 | 38.96443 | -11.99956 | 26669 ft | 437 kts | 99° |
| 2026-05-08 16:49 | 38.96345 | -11.96042 | 26663 ft | 437 kts | 98° |
| 2026-05-08 16:49 | 38.96247 | -11.92129 | 26674 ft | 439 kts | 99° |
| 2026-05-08 16:50 | 38.96145 | -11.88253 | 26672 ft | 440 kts | 99° |
| 2026-05-08 16:50 | 38.96043 | -11.84309 | 26677 ft | 439 kts | 98° |
| 2026-05-08 16:50 | 38.95943 | -11.80411 | 26679 ft | 438 kts | 98° |
| 2026-05-08 16:50 | 38.95839 | -11.76520 | 26672 ft | 438 kts | 98° |
| 2026-05-08 16:51 | 38.95733 | -11.72633 | 26689 ft | 438 kts | 98° |
| 2026-05-08 16:51 | 38.95626 | -11.68714 | 26677 ft | 440 kts | 98° |
| 2026-05-08 16:51 | 38.95520 | -11.64843 | 26683 ft | 439 kts | 98° |
| 2026-05-08 16:51 | 38.95412 | -11.60930 | 26689 ft | 439 kts | 98° |
| 2026-05-08 16:52 | 38.95300 | -11.56990 | 26692 ft | 440 kts | 98° |
| 2026-05-08 16:52 | 38.95187 | -11.53079 | 26692 ft | 442 kts | 98° |
| 2026-05-08 16:52 | 38.95074 | -11.49156 | 26687 ft | 442 kts | 98° |
| 2026-05-08 16:52 | 38.94957 | -11.45195 | 26692 ft | 443 kts | 98° |
| 2026-05-08 16:53 | 38.94725 | -11.37298 | 26694 ft | 443 kts | 98° |
| 2026-05-08 16:53 | 38.94605 | -11.33356 | 26700 ft | 444 kts | 98° |
| 2026-05-08 16:53 | 38.94484 | -11.29394 | 26695 ft | 443 kts | 98° |
| 2026-05-08 16:54 | 38.94362 | -11.25443 | 26699 ft | 443 kts | 98° |
| 2026-05-08 16:54 | 38.94239 | -11.21511 | 26708 ft | 444 kts | 98° |
| 2026-05-08 16:54 | 38.94114 | -11.17572 | 26708 ft | 444 kts | 98° |
| 2026-05-08 16:54 | 38.93988 | -11.13638 | 26720 ft | 444 kts | 98° |
| 2026-05-08 16:55 | 38.93862 | -11.09697 | 26722 ft | 445 kts | 98° |
| 2026-05-08 16:55 | 38.93731 | -11.05716 | 26718 ft | 445 kts | 99° |
| 2026-05-08 16:55 | 38.93602 | -11.01780 | 26688 ft | 447 kts | 98° |
| 2026-05-08 16:55 | 38.93468 | -10.97772 | 26417 ft | 445 kts | 98° |
| 2026-05-08 16:56 | 38.93336 | -10.93852 | 26147 ft | 443 kts | 98° |
| 2026-05-08 16:56 | 38.93203 | -10.89932 | 25873 ft | 441 kts | 98° |
| 2026-05-08 16:56 | 38.93069 | -10.85981 | 25598 ft | 440 kts | 98° |
| 2026-05-08 16:56 | 38.92933 | -10.82080 | 25314 ft | 438 kts | 98° |
| 2026-05-08 16:57 | 38.92798 | -10.78212 | 25013 ft | 437 kts | 98° |
| 2026-05-08 16:57 | 38.92661 | -10.74346 | 24814 ft | 435 kts | 97° |
| 2026-05-08 16:57 | 38.92524 | -10.70468 | 24630 ft | 429 kts | 98° |
| 2026-05-08 16:57 | 38.92393 | -10.66711 | 24448 ft | 416 kts | 97° |
| 2026-05-08 16:58 | 38.92275 | -10.63090 | 24462 ft | 404 kts | 98° |
| 2026-05-08 16:58 | 38.92156 | -10.59479 | 24489 ft | 405 kts | 97° |
| 2026-05-08 16:58 | 38.92033 | -10.55860 | 24509 ft | 405 kts | 98° |
| 2026-05-08 16:58 | 38.91911 | -10.52256 | 24525 ft | 406 kts | 98° |
| 2026-05-08 16:59 | 38.91784 | -10.48634 | 24505 ft | 407 kts | 98° |
| 2026-05-08 16:59 | 38.91658 | -10.45011 | 24027 ft | 407 kts | 98° |
| 2026-05-08 16:59 | 38.91533 | -10.41426 | 23564 ft | 404 kts | 98° |
| 2026-05-08 16:59 | 38.91407 | -10.37848 | 23095 ft | 401 kts | 97° |
| 2026-05-08 17:00 | 38.91282 | -10.34335 | 22693 ft | 395 kts | 98° |
| 2026-05-08 17:00 | 38.91157 | -10.30820 | 22717 ft | 395 kts | 98° |
| 2026-05-08 17:00 | 38.91031 | -10.27281 | 22668 ft | 393 kts | 98° |
| 2026-05-08 17:00 | 38.90906 | -10.23826 | 22277 ft | 390 kts | 98° |
| 2026-05-08 17:01 | 38.90778 | -10.20379 | 21697 ft | 390 kts | 98° |
| 2026-05-08 17:01 | 38.90649 | -10.16926 | 21166 ft | 387 kts | 98° |
| 2026-05-08 17:01 | 38.90521 | -10.13488 | 20698 ft | 384 kts | 98° |
| 2026-05-08 17:01 | 38.90394 | -10.10109 | 20262 ft | 379 kts | 98° |
| 2026-05-08 17:02 | 38.90269 | -10.06773 | 19926 ft | 372 kts | 98° |
| 2026-05-08 17:02 | 38.90144 | -10.03498 | 19599 ft | 365 kts | 98° |
| 2026-05-08 17:02 | 38.90020 | -10.00264 | 19261 ft | 359 kts | 98° |
| 2026-05-08 17:02 | 38.89899 | -9.97123 | 18965 ft | 351 kts | 98° |
| 2026-05-08 17:03 | 38.89778 | -9.93994 | 18624 ft | 346 kts | 98° |
| 2026-05-08 17:03 | 38.89660 | -9.90973 | 18274 ft | 341 kts | 98° |
| 2026-05-08 17:03 | 38.89542 | -9.87964 | 17936 ft | 336 kts | 98° |
| 2026-05-08 17:03 | 38.89424 | -9.85006 | 17603 ft | 331 kts | 98° |
| 2026-05-08 17:04 | 38.89307 | -9.82065 | 17277 ft | 326 kts | 98° |
| 2026-05-08 17:04 | 38.89192 | -9.79188 | 16949 ft | 321 kts | 98° |
| 2026-05-08 17:04 | 38.89077 | -9.76377 | 16583 ft | 318 kts | 98° |
| 2026-05-08 17:04 | 38.88961 | -9.73571 | 16193 ft | 316 kts | 98° |
| 2026-05-08 17:05 | 38.88845 | -9.70766 | 15788 ft | 314 kts | 98° |
| 2026-05-08 17:05 | 38.88730 | -9.67981 | 15392 ft | 312 kts | 98° |
| 2026-05-08 17:05 | 38.88614 | -9.65212 | 15030 ft | 310 kts | 98° |
| 2026-05-08 17:05 | 38.88668 | -9.62431 | 14571 ft | 314 kts | 82° |
| 2026-05-08 17:06 | 38.89625 | -9.59908 | 13922 ft | 326 kts | 54° |
| 2026-05-08 17:06 | 38.91192 | -9.57807 | 13386 ft | 328 kts | 47° |
| 2026-05-08 17:06 | 38.92844 | -9.55797 | 12861 ft | 330 kts | 47° |
| 2026-05-08 17:06 | 38.94484 | -9.53745 | 12469 ft | 327 kts | 49° |
| 2026-05-08 17:07 | 38.96064 | -9.51688 | 12046 ft | 317 kts | 50° |
| 2026-05-08 17:07 | 38.97550 | -9.49691 | 11458 ft | 311 kts | 51° |
| 2026-05-08 17:07 | 38.99019 | -9.47680 | 10886 ft | 303 kts | 51° |
| 2026-05-08 17:07 | 39.00426 | -9.45732 | 10470 ft | 292 kts | 52° |
| 2026-05-08 17:08 | 39.01789 | -9.43839 | 10122 ft | 286 kts | 52° |
| 2026-05-08 17:08 | 39.03118 | -9.41982 | 9811 ft | 283 kts | 52° |
| 2026-05-08 17:08 | 39.04442 | -9.40129 | 9479 ft | 282 kts | 52° |
| 2026-05-08 17:08 | 39.05772 | -9.38265 | 9167 ft | 281 kts | 52° |
| 2026-05-08 17:09 | 39.07085 | -9.36425 | 8853 ft | 280 kts | 52° |
| 2026-05-08 17:09 | 39.08389 | -9.34596 | 8528 ft | 279 kts | 53° |
| 2026-05-08 17:09 | 39.09689 | -9.32780 | 8190 ft | 271 kts | 52° |
| 2026-05-08 17:09 | 39.10962 | -9.30999 | 7993 ft | 263 kts | 53° |
| 2026-05-08 17:10 | 39.12173 | -9.29304 | 7913 ft | 257 kts | 53° |
| 2026-05-08 17:10 | 39.13382 | -9.27602 | 7841 ft | 258 kts | 53° |
| 2026-05-08 17:10 | 39.14504 | -9.25843 | 7793 ft | 254 kts | 63° |
| 2026-05-08 17:10 | 39.15012 | -9.23766 | 7764 ft | 238 kts | 101° |
| 2026-05-08 17:11 | 39.14500 | -9.21830 | 7784 ft | 227 kts | 129° |
| 2026-05-08 17:11 | 39.13400 | -9.20455 | 7754 ft | 218 kts | 146° |
| 2026-05-08 17:11 | 39.12189 | -9.19303 | 7292 ft | 217 kts | 145° |
| 2026-05-08 17:11 | 39.10985 | -9.18139 | 6857 ft | 211 kts | 145° |
| 2026-05-08 17:12 | 39.09849 | -9.17018 | 6617 ft | 202 kts | 144° |
| 2026-05-08 17:12 | 39.08783 | -9.15955 | 6388 ft | 189 kts | 144° |
| 2026-05-08 17:12 | 39.07787 | -9.14954 | 6247 ft | 175 kts | 144° |
| 2026-05-08 17:12 | 39.06822 | -9.13985 | 6000 ft | 174 kts | 144° |
| 2026-05-08 17:13 | 39.05870 | -9.13023 | 5772 ft | 174 kts | 144° |
| 2026-05-08 17:13 | 39.04917 | -9.12059 | 5548 ft | 174 kts | 144° |
| 2026-05-08 17:13 | 39.03965 | -9.11097 | 5339 ft | 174 kts | 144° |
| 2026-05-08 17:13 | 39.03017 | -9.10140 | 5120 ft | 175 kts | 144° |
| 2026-05-08 17:14 | 39.02055 | -9.09168 | 4896 ft | 174 kts | 144° |
| 2026-05-08 17:14 | 39.01108 | -9.08211 | 4680 ft | 174 kts | 144° |
| 2026-05-08 17:14 | 39.00170 | -9.07261 | 4465 ft | 172 kts | 145° |
| 2026-05-08 17:14 | 38.99229 | -9.06310 | 4252 ft | 172 kts | 145° |
| 2026-05-08 17:15 | 38.98286 | -9.05358 | 4037 ft | 172 kts | 145° |
| 2026-05-08 17:15 | 38.97333 | -9.04440 | 3928 ft | 170 kts | 153° |
| 2026-05-08 17:15 | 38.96213 | -9.04255 | 3720 ft | 164 kts | 193° |
| 2026-05-08 17:15 | 38.95183 | -9.04745 | 3608 ft | 152 kts | 195° |
| 2026-05-08 17:16 | 38.94178 | -9.05165 | 3490 ft | 151 kts | 195° |
| 2026-05-08 17:16 | 38.93187 | -9.05609 | 3287 ft | 151 kts | 196° |
| 2026-05-08 17:16 | 38.92207 | -9.06086 | 3085 ft | 151 kts | 197° |
| 2026-05-08 17:16 | 38.91234 | -9.06584 | 2879 ft | 150 kts | 198° |
| 2026-05-08 17:17 | 38.90268 | -9.07093 | 2671 ft | 150 kts | 199° |
| 2026-05-08 17:17 | 38.89307 | -9.07607 | 2479 ft | 149 kts | 199° |
| 2026-05-08 17:17 | 38.88341 | -9.08125 | 2294 ft | 145 kts | 199° |
| 2026-05-08 17:17 | 38.87450 | -9.08608 | 2073 ft | 132 kts | 198° |
| 2026-05-08 17:18 | 38.86636 | -9.09046 | 1900 ft | 127 kts | 198° |
| 2026-05-08 17:18 | 38.85822 | -9.09479 | 1748 ft | 127 kts | 198° |
| 2026-05-08 17:18 | 38.85003 | -9.09917 | 1593 ft | 126 kts | 200° |
| 2026-05-08 17:18 | 38.84190 | -9.10353 | 1442 ft | 126 kts | 200° |
| 2026-05-08 17:19 | 38.83379 | -9.10788 | 1274 ft | 126 kts | 199° |
| 2026-05-08 17:19 | 38.82575 | -9.11220 | 1106 ft | 125 kts | 199° |
| 2026-05-08 17:19 | 38.81773 | -9.11648 | 934 ft | 125 kts | 201° |
| 2026-05-08 17:19 | 38.80962 | -9.12080 | 772 ft | 125 kts | 202° |
| 2026-05-08 17:20 | 38.80169 | -9.12503 | 599 ft | 125 kts | 200° |
| 2026-05-08 17:20 | 38.79368 | -9.12918 | 433 ft | 124 kts | 203° |
| 2026-05-08 17:20 | 38.78593 | -9.13333 | 381 ft | 105 kts | 202° |
| 2026-05-08 17:20 | 38.78080 | -9.13608 | 381 ft | 56 kts | 202° |
| 2026-05-08 17:21 | 38.77764 | -9.13740 | 381 ft | 53 kts | 186° |
| 2026-05-08 17:21 | 38.77625 | -9.13756 | 381 ft | 0 kts | 178° |
| 2026-05-08 17:21 | 38.77609 | -9.13756 | 381 ft | 0 kts | 179° |
| 2026-05-08 17:21 | 38.77546 | -9.13755 | 381 ft | 0 kts | 179° |
| 2026-05-08 17:22 | 38.77541 | -9.13755 | 381 ft | 2 kts | 177° |
| 2026-05-08 17:22 | 38.77492 | -9.13752 | 381 ft | 15 kts | 178° |
| 2026-05-08 17:22 | 38.77360 | -9.13773 | 380 ft | 19 kts | 199° |
| 2026-05-08 17:22 | 38.77269 | -9.13740 | 381 ft | 15 kts | 107° |
| 2026-05-08 17:23 | 38.77282 | -9.13608 | 380 ft | 15 kts | 75° |
| 2026-05-08 17:23 | 38.77302 | -9.13475 | 380 ft | 15 kts | 78° |
| 2026-05-08 17:23 | 38.77324 | -9.13340 | 380 ft | 14 kts | 76° |
| 2026-05-08 17:23 | 38.77285 | -9.13251 | 380 ft | 12 kts | 165° |
| 2026-05-08 17:24 | 38.77249 | -9.13189 | 380 ft | 5 kts | 84° |
| 2026-05-08 17:24 | 38.77254 | -9.13159 | 380 ft | 1 kts | 78° |
| 2026-05-08 17:24 | 38.77255 | -9.13150 | 380 ft | 0 kts | 78° |
| 2026-05-08 17:24 | 38.77255 | -9.13149 | 380 ft | 0 kts | 78° |